createdAt,value
2023-05-14T00:01:42.871Z,14.90
2023-05-14T00:04:11.525Z,15.30
2023-05-14T00:06:40.109Z,14.73
2023-05-14T00:09:08.715Z,14.25
2023-05-14T00:11:37.310Z,13.22
2023-05-14T00:14:05.972Z,15.98
2023-05-14T00:16:34.666Z,14.73
2023-05-14T00:19:03.773Z,13.68
2023-05-14T00:21:32.494Z,13.38
2023-05-14T00:24:01.322Z,12.13
2023-05-14T00:26:29.923Z,12.33
2023-05-14T00:28:58.589Z,12.15
2023-05-14T00:31:27.272Z,12.33
2023-05-14T00:33:57.378Z,11.45
2023-05-14T00:36:25.961Z,11.90
2023-05-14T00:38:54.558Z,11.78
2023-05-14T00:41:23.992Z,11.55
2023-05-14T00:43:52.599Z,11.70
2023-05-14T00:46:21.272Z,11.80
2023-05-14T00:48:49.962Z,12.50
2023-05-14T00:51:19.482Z,13.13
2023-05-14T00:53:48.458Z,12.35
2023-05-14T00:56:17.379Z,10.75
2023-05-14T00:58:46.066Z,10.85
2023-05-14T01:01:15.355Z,11.25
2023-05-14T01:03:44.884Z,11.53
2023-05-14T01:06:37.448Z,11.50
2023-05-14T01:09:13.232Z,11.88
2023-05-14T01:11:44.940Z,11.08
2023-05-14T01:14:43.212Z,11.88
2023-05-14T01:17:13.397Z,11.68
2023-05-14T01:19:44.068Z,13.08
2023-05-14T01:22:13.192Z,13.15
2023-05-14T01:24:42.437Z,13.40
2023-05-14T01:27:25.680Z,15.05
2023-05-14T01:30:09.282Z,15.80
2023-05-14T01:32:39.765Z,15.90
2023-05-14T01:35:10.698Z,16.67
2023-05-14T01:37:40.534Z,16.23
2023-05-14T01:40:10.070Z,16.05
2023-05-14T01:42:39.614Z,15.35
2023-05-14T01:45:08.865Z,16.27
2023-05-14T01:47:37.755Z,15.15
2023-05-14T01:50:06.870Z,15.93
2023-05-14T01:52:35.483Z,14.68
2023-05-14T01:55:05.154Z,13.65
2023-05-14T01:57:33.709Z,13.15
2023-05-14T02:00:02.471Z,12.20
2023-05-14T02:02:31.179Z,13.72
2023-05-14T02:04:59.742Z,14.05
2023-05-14T02:07:28.339Z,14.35
2023-05-14T02:09:56.934Z,13.25
2023-05-14T02:12:26.295Z,13.08
2023-05-14T02:14:54.886Z,12.73
2023-05-14T02:17:25.177Z,11.60
2023-05-14T02:19:53.844Z,12.25
2023-05-14T02:22:22.488Z,11.68
2023-05-14T02:24:51.359Z,12.68
2023-05-14T02:27:21.293Z,12.33
2023-05-14T02:29:49.918Z,13.08
2023-05-14T02:32:18.544Z,11.33
2023-05-14T02:34:47.100Z,11.57
2023-05-14T02:37:17.234Z,12.75
2023-05-14T02:39:45.879Z,10.53
2023-05-14T02:42:14.478Z,9.25
2023-05-14T02:44:43.065Z,9.18
2023-05-14T02:47:11.718Z,10.13
2023-05-14T02:49:40.342Z,9.60
2023-05-14T02:52:08.953Z,10.60
2023-05-14T02:54:37.533Z,11.03
2023-05-14T02:57:06.267Z,11.28
2023-05-14T02:59:34.855Z,11.75
2023-05-14T03:02:03.889Z,11.90
2023-05-14T03:04:32.938Z,11.08
2023-05-14T03:07:01.508Z,12.20
2023-05-14T03:09:30.113Z,10.58
2023-05-14T03:11:58.695Z,9.08
2023-05-14T03:14:27.267Z,7.60
2023-05-14T03:16:55.958Z,10.28
2023-05-14T03:19:24.526Z,12.75
2023-05-14T03:21:53.113Z,13.18
2023-05-14T03:24:21.716Z,15.75
2023-05-14T03:26:50.299Z,14.50
2023-05-14T03:29:18.902Z,13.45
2023-05-14T03:31:47.522Z,15.28
2023-05-14T03:34:16.112Z,15.65
2023-05-14T03:36:44.713Z,15.85
2023-05-14T03:39:14.937Z,14.70
2023-05-14T03:41:43.546Z,15.38
2023-05-14T03:44:12.132Z,16.00
2023-05-14T03:46:40.801Z,15.10
2023-05-14T03:49:09.418Z,14.90
2023-05-14T03:51:37.987Z,13.28
2023-05-14T03:54:07.499Z,9.75
2023-05-14T03:56:36.085Z,9.43
2023-05-14T03:59:04.696Z,11.05
2023-05-14T04:01:33.274Z,11.48
2023-05-14T04:04:02.004Z,10.85
2023-05-14T04:06:31.120Z,9.23
2023-05-14T04:08:59.702Z,10.00
2023-05-14T04:11:28.310Z,10.25
2023-05-14T04:13:56.909Z,9.38
2023-05-14T04:16:25.687Z,11.25
2023-05-14T04:18:54.391Z,12.03
2023-05-14T04:21:22.979Z,12.35
2023-05-14T04:23:51.565Z,12.95
2023-05-14T04:26:20.130Z,12.63
2023-05-14T04:28:48.745Z,13.90
2023-05-14T04:31:17.435Z,14.33
2023-05-14T04:33:45.989Z,15.15
2023-05-14T04:36:33.928Z,13.22
2023-05-14T04:39:02.595Z,12.63
2023-05-14T04:41:31.181Z,13.00
2023-05-14T04:44:01.867Z,13.20
2023-05-14T04:46:31.102Z,13.62
2023-05-14T04:48:59.725Z,12.03
2023-05-14T04:51:28.481Z,12.45
2023-05-14T04:53:57.093Z,10.80
2023-05-14T04:56:26.231Z,11.80
2023-05-14T04:58:54.807Z,11.45
2023-05-14T05:01:23.549Z,10.93
2023-05-14T05:03:52.510Z,11.50
2023-05-14T05:06:21.065Z,12.40
2023-05-14T05:08:49.666Z,13.22
2023-05-14T05:11:18.263Z,13.43
2023-05-14T05:13:46.856Z,11.97
2023-05-14T05:16:15.590Z,12.40
2023-05-14T05:18:45.620Z,11.30
2023-05-14T05:21:14.304Z,10.90
2023-05-14T05:23:42.883Z,10.60
2023-05-14T05:26:39.019Z,9.90
2023-05-14T05:29:15.718Z,10.13
2023-05-14T05:32:16.195Z,9.93
2023-05-14T05:35:06.836Z,9.45
2023-05-14T05:40:23.893Z,10.65
2023-05-14T05:43:04.864Z,10.45
2023-05-14T05:45:47.211Z,10.18
2023-05-14T05:48:25.339Z,12.65
2023-05-14T05:51:11.866Z,13.05
2023-05-14T05:54:11.368Z,12.70
2023-05-14T06:02:52.626Z,14.18
2023-05-14T06:05:47.361Z,13.70
2023-05-14T06:08:40.523Z,13.38
2023-05-14T06:11:18.577Z,13.65
2023-05-14T06:13:50.176Z,14.33
2023-05-14T06:16:19.256Z,13.40
2023-05-14T06:18:55.978Z,14.25
2023-05-14T06:21:34.188Z,13.25
2023-05-14T06:24:02.978Z,13.90
2023-05-14T06:26:45.519Z,14.75
2023-05-14T06:29:44.033Z,13.95
2023-05-14T06:32:27.911Z,15.32
2023-05-14T06:35:01.187Z,14.33
2023-05-14T06:43:14.271Z,13.75
2023-05-14T06:46:15.078Z,15.68
2023-05-14T06:49:00.067Z,14.98
2023-05-14T06:51:34.433Z,14.73
2023-05-14T06:54:15.974Z,14.68
2023-05-14T06:56:44.923Z,13.98
2023-05-14T07:03:01.263Z,15.05
2023-05-14T07:06:02.788Z,15.00
2023-05-14T07:08:41.783Z,14.58
2023-05-14T07:11:28.827Z,14.05
2023-05-14T07:14:03.067Z,13.78
2023-05-14T07:16:36.671Z,15.30
2023-05-14T07:19:12.764Z,14.05
2023-05-14T07:21:40.048Z,12.68
2023-05-14T07:24:10.822Z,11.90
2023-05-14T07:26:39.647Z,13.03
2023-05-14T07:29:10.304Z,13.43
2023-05-14T07:31:40.461Z,13.22
2023-05-14T07:34:13.177Z,12.53
2023-05-14T07:36:41.891Z,13.78
2023-05-14T07:39:10.471Z,10.72
2023-05-14T07:41:41.839Z,12.75
2023-05-14T07:44:11.750Z,11.95
2023-05-14T07:46:42.101Z,12.53
2023-05-14T07:49:12.141Z,10.90
2023-05-14T07:51:43.487Z,12.07
2023-05-14T07:54:14.804Z,12.43
2023-05-14T07:56:43.570Z,13.18
2023-05-14T07:59:12.152Z,11.90
2023-05-14T08:01:40.841Z,11.68
2023-05-14T08:04:11.283Z,11.90
2023-05-14T08:06:39.966Z,10.63
2023-05-14T08:09:08.760Z,11.33
2023-05-14T08:11:37.514Z,11.25
2023-05-14T08:14:06.204Z,11.38
2023-05-14T08:16:34.887Z,12.37
2023-05-14T08:19:03.880Z,11.45
2023-05-14T08:21:33.143Z,12.25
2023-05-14T08:24:01.810Z,12.53
2023-05-14T08:26:30.558Z,11.63
2023-05-14T08:29:00.759Z,11.28
2023-05-14T08:31:32.629Z,10.90
2023-05-14T08:34:01.645Z,12.23
2023-05-14T08:36:30.293Z,12.03
2023-05-14T08:38:59.194Z,12.58
2023-05-14T08:41:27.798Z,12.73
2023-05-14T08:44:11.226Z,12.80
2023-05-14T08:46:41.042Z,13.13
2023-05-14T08:49:27.692Z,13.53
2023-05-14T08:51:56.863Z,11.60
2023-05-14T08:54:28.234Z,10.58
2023-05-14T08:56:57.909Z,10.15
2023-05-14T08:59:27.145Z,9.38
2023-05-14T09:01:58.970Z,8.43
2023-05-14T09:04:29.853Z,9.18
2023-05-14T09:07:00.131Z,10.72
2023-05-14T09:09:30.729Z,11.10
2023-05-14T09:11:59.474Z,10.03
2023-05-14T09:14:28.181Z,9.65
2023-05-14T09:16:57.109Z,9.05
2023-05-14T09:19:26.651Z,10.63
2023-05-14T09:21:58.432Z,11.25
2023-05-14T09:24:31.669Z,10.48
2023-05-14T09:27:00.436Z,14.20
2023-05-14T09:29:32.356Z,14.10
2023-05-14T09:32:05.905Z,13.20
2023-05-14T09:34:39.074Z,12.30
2023-05-14T09:37:09.965Z,12.37
2023-05-14T09:39:39.401Z,12.23
2023-05-14T09:42:08.300Z,12.33
2023-05-14T09:44:38.238Z,11.85
2023-05-14T09:47:07.617Z,11.90
2023-05-14T09:49:36.970Z,11.15
2023-05-14T09:52:07.269Z,11.57
2023-05-14T09:54:38.299Z,11.05
2023-05-14T09:57:07.168Z,10.70
2023-05-14T09:59:35.763Z,10.65
2023-05-14T10:02:06.273Z,11.95
2023-05-14T10:04:38.616Z,11.18
2023-05-14T10:07:07.416Z,11.12
2023-05-14T10:09:38.680Z,12.28
2023-05-14T10:12:08.836Z,10.50
2023-05-14T10:14:43.083Z,10.48
2023-05-14T10:17:15.084Z,10.80
2023-05-14T10:19:44.282Z,11.12
2023-05-14T10:22:15.982Z,11.35
2023-05-14T10:24:45.919Z,11.83
2023-05-14T10:27:15.239Z,12.25
2023-05-14T10:29:56.852Z,10.55
2023-05-14T10:32:53.381Z,10.60
2023-05-14T10:35:11.719Z,11.20
2023-05-14T10:38:22.121Z,14.55
2023-05-14T10:41:20.933Z,11.20
2023-05-14T10:46:44.556Z,10.58
2023-05-14T10:49:36.084Z,9.63
2023-05-14T10:51:58.087Z,10.72
2023-05-14T10:55:09.178Z,10.30
2023-05-14T10:57:47.670Z,9.98
2023-05-14T11:00:20.146Z,9.60
2023-05-14T11:02:51.719Z,12.58
2023-05-14T11:05:34.929Z,10.72
2023-05-14T11:08:26.479Z,9.95
2023-05-14T11:11:02.572Z,9.53
2023-05-14T11:13:43.837Z,9.68
2023-05-14T11:16:23.817Z,8.60
2023-05-14T11:19:00.561Z,8.20
2023-05-14T11:21:36.493Z,7.25
2023-05-14T11:24:07.864Z,9.05
2023-05-14T11:26:37.140Z,8.53
2023-05-14T11:29:06.405Z,7.40
2023-05-14T11:31:36.490Z,7.60
2023-05-14T11:34:07.059Z,7.33
2023-05-14T11:36:37.582Z,7.78
2023-05-14T11:39:07.023Z,8.68
2023-05-14T11:41:35.717Z,8.08
2023-05-14T11:44:07.838Z,9.08
2023-05-14T11:46:38.830Z,8.80
2023-05-14T11:49:07.962Z,7.97
2023-05-14T11:51:37.625Z,7.30
2023-05-14T11:54:06.286Z,5.17
2023-05-14T11:56:36.032Z,5.42
2023-05-14T11:59:04.686Z,5.25
2023-05-14T12:01:36.370Z,5.03
2023-05-14T12:04:06.041Z,4.40
2023-05-14T12:06:34.841Z,4.50
2023-05-14T12:09:05.913Z,3.65
2023-05-14T12:11:36.191Z,3.12
2023-05-14T12:14:13.234Z,2.95
2023-05-14T12:16:42.787Z,2.80
2023-05-14T12:19:12.856Z,2.40
2023-05-14T12:21:43.838Z,2.85
2023-05-14T12:24:17.810Z,2.50
2023-05-14T12:26:52.338Z,2.50
2023-05-14T12:29:22.041Z,3.05
2023-05-14T12:31:51.658Z,3.12
2023-05-14T12:34:20.271Z,3.20
2023-05-14T12:36:48.902Z,5.70
2023-05-14T12:39:20.052Z,3.10
2023-05-14T12:41:48.632Z,2.55
2023-05-14T12:44:17.262Z,3.27
2023-05-14T12:46:45.977Z,3.25
2023-05-14T12:49:14.632Z,2.98
2023-05-14T12:51:43.325Z,2.95
2023-05-14T12:54:11.964Z,3.37
2023-05-14T12:56:40.614Z,2.90
2023-05-14T12:59:09.500Z,3.15
2023-05-14T13:01:38.281Z,3.40
2023-05-14T13:04:08.001Z,2.80
2023-05-14T13:06:37.311Z,2.45
2023-05-14T13:09:06.396Z,3.12
2023-05-14T13:11:35.168Z,3.10
2023-05-14T13:14:03.931Z,3.10
2023-05-14T13:16:33.912Z,3.20
2023-05-14T13:19:02.563Z,2.90
2023-05-14T13:21:31.652Z,2.75
2023-05-14T13:24:00.245Z,3.02
2023-05-14T13:26:28.830Z,2.92
2023-05-14T13:28:57.468Z,3.08
2023-05-14T13:31:26.109Z,3.20
2023-05-14T13:33:57.689Z,2.77
2023-05-14T13:36:26.446Z,2.83
2023-05-14T13:38:55.061Z,3.05
2023-05-14T13:41:23.642Z,3.40
2023-05-14T13:43:52.418Z,2.90
2023-05-14T13:46:21.334Z,3.05
2023-05-14T13:48:49.970Z,3.00
2023-05-14T13:51:18.758Z,3.20
2023-05-14T13:53:47.416Z,2.70
2023-05-14T13:56:16.111Z,3.05
2023-05-14T13:58:44.764Z,2.85
2023-05-14T14:01:13.390Z,2.70
2023-05-14T14:03:41.627Z,3.15
2023-05-14T14:06:09.892Z,2.60
2023-05-14T14:08:38.563Z,3.58
2023-05-14T14:11:07.261Z,3.17
2023-05-14T14:13:36.427Z,3.33
2023-05-14T14:16:06.297Z,2.92
2023-05-14T14:18:36.691Z,3.50
2023-05-14T14:21:05.454Z,3.30
2023-05-14T14:23:34.067Z,2.80
2023-05-14T14:26:02.806Z,3.20
2023-05-14T14:28:31.750Z,3.27
2023-05-14T14:31:00.505Z,3.30
2023-05-14T14:33:29.353Z,3.25
2023-05-14T14:35:57.923Z,3.42
2023-05-14T14:38:26.740Z,2.83
2023-05-14T14:40:55.358Z,3.55
2023-05-14T14:43:24.532Z,3.52
2023-05-14T14:45:53.334Z,3.02
2023-05-14T14:48:34.403Z,3.05
2023-05-14T14:51:02.987Z,3.15
2023-05-14T14:53:31.960Z,3.20
2023-05-14T14:56:01.276Z,3.00
2023-05-14T14:58:30.963Z,3.22
2023-05-14T15:01:01.539Z,2.80
2023-05-14T15:03:31.653Z,2.77
2023-05-14T15:06:00.561Z,3.20
2023-05-14T15:08:30.222Z,3.05
2023-05-14T15:10:59.333Z,2.87
2023-05-14T15:13:32.014Z,2.80
2023-05-14T15:16:00.788Z,2.90
2023-05-14T15:18:29.516Z,3.40
2023-05-14T15:20:58.303Z,2.95
2023-05-14T15:23:26.873Z,3.27
2023-05-14T15:25:55.462Z,3.50
2023-05-14T15:28:24.167Z,3.27
2023-05-14T15:30:52.930Z,2.83
2023-05-14T15:33:21.540Z,2.72
2023-05-14T15:35:50.356Z,2.70
2023-05-14T15:38:18.989Z,2.77
2023-05-14T15:40:49.671Z,2.92
2023-05-14T15:43:18.302Z,3.05
2023-05-14T15:45:46.909Z,2.60
2023-05-14T15:48:15.751Z,3.20
2023-05-14T15:50:44.436Z,3.02
2023-05-14T15:53:13.017Z,3.00
2023-05-14T15:55:41.776Z,3.12
2023-05-14T15:58:10.345Z,3.30
2023-05-14T16:00:39.082Z,3.00
2023-05-14T16:03:07.775Z,2.90
2023-05-14T16:05:37.942Z,3.30
2023-05-14T16:08:07.044Z,2.60
2023-05-14T16:10:35.703Z,3.45
2023-05-14T16:13:04.486Z,3.33
2023-05-14T16:15:33.041Z,3.58
2023-05-14T16:18:02.034Z,4.25
2023-05-14T16:20:30.645Z,4.25
2023-05-14T16:22:59.261Z,4.20
2023-05-14T16:25:27.897Z,4.75
2023-05-14T16:27:56.491Z,4.08
2023-05-14T16:30:25.252Z,3.35
2023-05-14T16:32:54.075Z,3.50
2023-05-14T16:35:22.720Z,3.92
2023-05-14T16:37:51.589Z,3.45
2023-05-14T16:40:21.916Z,3.75
2023-05-14T16:42:51.270Z,4.30
2023-05-14T16:45:19.876Z,3.60
2023-05-14T16:47:49.707Z,3.20
2023-05-14T16:50:18.330Z,3.52
2023-05-14T16:52:46.938Z,3.72
2023-05-14T16:55:15.646Z,4.10
2023-05-14T16:57:44.189Z,3.77
2023-05-14T17:00:13.307Z,4.00
2023-05-14T17:02:42.165Z,4.10
2023-05-14T17:05:10.919Z,3.67
2023-05-14T17:07:39.522Z,4.15
2023-05-14T17:10:08.632Z,4.75
2023-05-14T17:12:37.290Z,4.10
2023-05-14T17:15:07.847Z,3.90
2023-05-14T17:17:36.505Z,4.12
2023-05-14T17:20:08.542Z,4.08
2023-05-14T17:22:37.237Z,4.20
2023-05-14T17:25:06.298Z,3.80
2023-05-14T17:27:48.899Z,4.40
2023-05-14T17:30:23.571Z,4.00
2023-05-14T17:32:57.819Z,3.87
2023-05-14T17:35:38.333Z,4.05
2023-05-14T17:38:13.112Z,4.37
2023-05-14T17:40:44.611Z,4.58
2023-05-14T17:43:19.082Z,3.95
2023-05-14T17:46:01.691Z,4.15
2023-05-14T17:48:34.845Z,4.30
2023-05-14T17:51:11.054Z,4.35
2023-05-14T17:53:56.044Z,4.30
2023-05-14T17:56:34.770Z,4.72
2023-05-14T17:59:17.230Z,5.50
2023-05-14T18:02:06.164Z,5.15
2023-05-14T18:04:43.853Z,5.12
2023-05-14T18:07:22.872Z,4.50
2023-05-14T18:09:58.742Z,4.87
2023-05-14T18:12:29.470Z,4.80
2023-05-14T18:18:05.314Z,5.20
2023-05-14T18:20:36.731Z,4.75
2023-05-14T18:23:16.202Z,5.05
2023-05-14T18:25:55.831Z,4.75
2023-05-14T18:28:31.962Z,5.17
2023-05-14T18:31:11.836Z,5.05
2023-05-14T18:33:41.317Z,5.12
2023-05-14T18:36:15.818Z,6.37
2023-05-14T18:38:54.895Z,7.83
2023-05-14T18:41:34.091Z,7.70
2023-05-14T18:44:05.663Z,4.97
2023-05-14T18:46:37.313Z,5.05
2023-05-14T18:49:06.181Z,3.75
2023-05-14T18:51:40.584Z,3.10
2023-05-14T18:54:09.232Z,3.50
2023-05-14T18:56:46.140Z,3.30
2023-05-14T18:59:16.998Z,2.87
2023-05-14T19:01:47.721Z,2.75
2023-05-14T19:04:19.581Z,3.17
2023-05-14T19:06:47.978Z,2.70
2023-05-14T19:09:25.045Z,2.90
2023-05-14T19:11:55.269Z,2.70
2023-05-14T19:14:32.925Z,2.72
2023-05-14T19:17:08.293Z,2.92
2023-05-14T19:19:44.707Z,2.77
2023-05-14T19:22:26.309Z,2.83
2023-05-14T19:25:01.005Z,3.12
2023-05-14T19:27:35.098Z,3.00
2023-05-14T19:30:08.484Z,3.05
2023-05-14T19:32:39.943Z,3.10
2023-05-14T19:35:14.080Z,3.40
2023-05-14T19:37:50.546Z,2.92
2023-05-14T19:40:32.709Z,3.00
2023-05-14T19:43:07.430Z,3.17
2023-05-14T19:45:44.539Z,2.90
2023-05-14T19:48:19.545Z,3.20
2023-05-14T19:50:58.818Z,3.30
2023-05-14T19:53:36.140Z,3.12
2023-05-14T19:56:15.281Z,3.37
2023-05-14T19:59:04.852Z,3.42
2023-05-14T20:01:45.682Z,3.47
2023-05-14T20:04:28.085Z,3.27
2023-05-14T20:07:18.989Z,3.33
2023-05-14T20:09:51.560Z,3.50
2023-05-14T20:12:23.975Z,3.10
2023-05-14T20:15:05.812Z,3.70
2023-05-14T20:17:36.954Z,3.67
2023-05-14T20:20:15.948Z,4.08
2023-05-14T20:22:53.918Z,3.30
2023-05-14T20:25:28.505Z,3.25
2023-05-14T20:28:01.601Z,3.70
2023-05-14T20:30:48.381Z,3.70
2023-05-14T20:33:20.801Z,3.65
2023-05-14T20:35:54.648Z,3.95
2023-05-14T20:39:10.529Z,3.70
2023-05-14T20:41:43.827Z,3.37
2023-05-14T20:44:51.649Z,3.45
2023-05-14T20:47:30.027Z,3.92
2023-05-14T20:50:05.119Z,3.80
2023-05-14T20:52:41.999Z,4.17
2023-05-14T20:55:15.678Z,4.70
2023-05-14T20:58:00.646Z,4.85
2023-05-14T21:00:29.806Z,4.40
2023-05-14T21:03:05.730Z,4.37
2023-05-14T21:05:35.119Z,4.08
2023-05-14T21:08:07.081Z,4.70
2023-05-14T21:10:37.547Z,4.23
2023-05-14T21:13:10.783Z,4.00
2023-05-14T21:15:39.872Z,4.70
2023-05-14T21:18:18.662Z,4.92
2023-05-14T21:20:53.405Z,4.30
2023-05-14T21:23:22.133Z,4.70
2023-05-14T21:26:00.965Z,4.85
2023-05-14T21:28:32.696Z,5.20
2023-05-14T21:31:01.308Z,4.70
2023-05-14T21:33:32.586Z,5.37
2023-05-14T21:36:07.412Z,5.22
2023-05-14T21:38:43.280Z,5.05
2023-05-14T21:41:13.884Z,5.60
2023-05-14T21:43:44.373Z,5.72
2023-05-14T21:46:13.132Z,5.45
2023-05-14T21:48:47.874Z,4.95
2023-05-14T21:51:26.557Z,5.22
2023-05-14T21:54:11.168Z,5.22
2023-05-14T21:56:31.914Z,5.00
2023-05-14T21:59:06.454Z,5.15
2023-05-14T22:01:42.329Z,6.03
2023-05-14T22:04:09.384Z,5.85
2023-05-14T22:06:38.266Z,6.30
2023-05-14T22:09:06.943Z,6.37
2023-05-14T22:11:38.266Z,5.60
2023-05-14T22:14:06.894Z,6.12
2023-05-14T22:16:38.856Z,5.85
2023-05-14T22:19:07.530Z,6.07
2023-05-14T22:21:36.313Z,5.65
2023-05-14T22:24:05.143Z,5.90
2023-05-14T22:26:33.872Z,6.10
2023-05-14T22:29:02.548Z,6.03
2023-05-14T22:31:31.211Z,6.28
2023-05-14T22:33:59.797Z,6.62
2023-05-14T22:36:28.480Z,6.05
2023-05-14T22:38:57.111Z,6.58
2023-05-14T22:41:26.645Z,7.00
2023-05-14T22:43:55.364Z,6.62
2023-05-14T22:46:24.189Z,7.03
2023-05-14T22:48:54.463Z,7.10
2023-05-14T22:51:23.129Z,7.30
2023-05-14T22:54:11.208Z,6.92
2023-05-14T22:56:39.954Z,6.05
2023-05-14T22:59:08.596Z,7.05
2023-05-14T23:01:37.474Z,6.92
2023-05-14T23:04:06.162Z,6.72
2023-05-14T23:06:34.921Z,6.92
2023-05-14T23:09:03.489Z,7.50
2023-05-14T23:11:32.082Z,8.65
2023-05-14T23:14:00.685Z,7.50
2023-05-14T23:16:29.286Z,7.87
2023-05-14T23:18:58.075Z,8.10
2023-05-14T23:21:26.782Z,8.33
2023-05-14T23:23:55.368Z,9.25
2023-05-14T23:26:23.972Z,9.28
2023-05-14T23:28:52.585Z,16.50
2023-05-14T23:31:21.733Z,11.10
2023-05-14T23:33:50.345Z,9.40
2023-05-14T23:36:18.984Z,8.93
2023-05-14T23:38:47.647Z,9.73
2023-05-14T23:41:16.248Z,10.13
2023-05-14T23:43:44.915Z,9.48
2023-05-14T23:46:13.565Z,10.08
2023-05-14T23:48:42.788Z,11.05
2023-05-14T23:51:11.415Z,10.70
2023-05-14T23:53:39.997Z,10.72
2023-05-14T23:56:08.927Z,11.10
2023-05-14T23:58:37.669Z,10.25
